sensor_id;sensor_type;location;lat;lon;timestamp;P1;durP1;ratioP1;P2;durP2;ratioP2
63880;SDS011;50046;46.672;11.152;2022-12-20T00:00:10;0.60;;;0.60;;
63880;SDS011;50046;46.672;11.152;2022-12-20T00:00:21;0.50;;;0.50;;
63880;SDS011;50046;46.672;11.152;2022-12-20T00:00:32;0.50;;;0.50;;
63880;SDS011;50046;46.672;11.152;2022-12-20T00:00:42;0.47;;;0.47;;
63880;SDS011;50046;46.672;11.152;2022-12-20T00:00:53;0.52;;;0.52;;
63880;SDS011;50046;46.672;11.152;2022-12-20T00:01:14;0.60;;;0.60;;
63880;SDS011;50046;46.672;11.152;2022-12-20T00:01:27;0.65;;;0.65;;
63880;SDS011;50046;46.672;11.152;2022-12-20T00:01:40;0.60;;;0.60;;
63880;SDS011;50046;46.672;11.152;2022-12-20T00:01:50;0.60;;;0.60;;
63880;SDS011;50046;46.672;11.152;2022-12-20T00:02:01;0.50;;;0.50;;
63880;SDS011;50046;46.672;11.152;2022-12-20T00:02:11;0.50;;;0.50;;
63880;SDS011;50046;46.672;11.152;2022-12-20T00:02:21;0.50;;;0.50;;
63880;SDS011;50046;46.672;11.152;2022-12-20T00:02:32;0.50;;;0.50;;
63880;SDS011;50046;46.672;11.152;2022-12-20T00:02:42;0.60;;;0.60;;
63880;SDS011;50046;46.672;11.152;2022-12-20T00:02:52;0.70;;;0.70;;
63880;SDS011;50046;46.672;11.152;2022-12-20T00:03:03;0.63;;;0.63;;
63880;SDS011;50046;46.672;11.152;2022-12-20T00:03:13;0.60;;;0.60;;
63880;SDS011;50046;46.672;11.152;2022-12-20T00:03:23;0.50;;;0.50;;
63880;SDS011;50046;46.672;11.152;2022-12-20T00:03:34;0.50;;;0.50;;
63880;SDS011;50046;46.672;11.152;2022-12-20T00:03:44;0.50;;;0.50;;
63880;SDS011;50046;46.672;11.152;2022-12-20T00:03:56;0.50;;;0.50;;
63880;SDS011;50046;46.672;11.152;2022-12-20T00:04:08;0.40;;;0.40;;
63880;SDS011;50046;46.672;11.152;2022-12-20T00:04:20;0.50;;;0.50;;
63880;SDS011;50046;46.672;11.152;2022-12-20T00:04:30;0.53;;;0.53;;
63880;SDS011;50046;46.672;11.152;2022-12-20T00:04:40;0.60;;;0.60;;
63880;SDS011;50046;46.672;11.152;2022-12-20T00:04:51;0.60;;;0.60;;
63880;SDS011;50046;46.672;11.152;2022-12-20T00:05:01;0.60;;;0.60;;
63880;SDS011;50046;46.672;11.152;2022-12-20T00:05:12;0.53;;;0.53;;
63880;SDS011;50046;46.672;11.152;2022-12-20T00:05:22;0.50;;;0.50;;
63880;SDS011;50046;46.672;11.152;2022-12-20T00:05:35;0.50;;;0.50;;
63880;SDS011;50046;46.672;11.152;2022-12-20T00:05:46;0.50;;;0.50;;
63880;SDS011;50046;46.672;11.152;2022-12-20T00:05:56;0.60;;;0.60;;
63880;SDS011;50046;46.672;11.152;2022-12-20T00:06:07;0.60;;;0.60;;
63880;SDS011;50046;46.672;11.152;2022-12-20T00:06:19;0.60;;;0.60;;
63880;SDS011;50046;46.672;11.152;2022-12-20T00:06:32;0.60;;;0.60;;
63880;SDS011;50046;46.672;11.152;2022-12-20T00:06:44;0.60;;;0.60;;
63880;SDS011;50046;46.672;11.152;2022-12-20T00:06:55;0.60;;;0.60;;
63880;SDS011;50046;46.672;11.152;2022-12-20T00:07:05;0.50;;;0.50;;
63880;SDS011;50046;46.672;11.152;2022-12-20T00:07:15;0.50;;;0.50;;
63880;SDS011;50046;46.672;11.152;2022-12-20T00:07:26;0.50;;;0.50;;
63880;SDS011;50046;46.672;11.152;2022-12-20T00:07:36;0.50;;;0.50;;
63880;SDS011;50046;46.672;11.152;2022-12-20T00:07:46;0.67;;;0.67;;
63880;SDS011;50046;46.672;11.152;2022-12-20T00:07:57;0.80;;;0.80;;
63880;SDS011;50046;46.672;11.152;2022-12-20T00:08:07;0.80;;;0.80;;
63880;SDS011;50046;46.672;11.152;2022-12-20T00:08:19;0.70;;;0.70;;
63880;SDS011;50046;46.672;11.152;2022-12-20T00:08:30;0.70;;;0.70;;
63880;SDS011;50046;46.672;11.152;2022-12-20T00:08:40;0.70;;;0.70;;
63880;SDS011;50046;46.672;11.152;2022-12-20T00:08:54;0.60;;;0.60;;
63880;SDS011;50046;46.672;11.152;2022-12-20T00:09:06;0.60;;;0.60;;
63880;SDS011;50046;46.672;11.152;2022-12-20T00:09:18;0.50;;;0.50;;
63880;SDS011;50046;46.672;11.152;2022-12-20T00:09:29;0.50;;;0.50;;
63880;SDS011;50046;46.672;11.152;2022-12-20T00:09:39;0.50;;;0.50;;
63880;SDS011;50046;46.672;11.152;2022-12-20T00:09:50;0.50;;;0.50;;
63880;SDS011;50046;46.672;11.152;2022-12-20T00:10:00;0.50;;;0.50;;
63880;SDS011;50046;46.672;11.152;2022-12-20T00:10:10;0.50;;;0.50;;
63880;SDS011;50046;46.672;11.152;2022-12-20T00:10:21;0.50;;;0.50;;
63880;SDS011;50046;46.672;11.152;2022-12-20T00:10:38;0.50;;;0.50;;
63880;SDS011;50046;46.672;11.152;2022-12-20T00:10:50;0.50;;;0.50;;
63880;SDS011;50046;46.672;11.152;2022-12-20T00:11:01;0.43;;;0.43;;
63880;SDS011;50046;46.672;11.152;2022-12-20T00:11:12;0.50;;;0.50;;
63880;SDS011;50046;46.672;11.152;2022-12-20T00:11:23;0.67;;;0.67;;
63880;SDS011;50046;46.672;11.152;2022-12-20T00:11:34;0.80;;;0.80;;
63880;SDS011;50046;46.672;11.152;2022-12-20T00:11:48;0.70;;;0.70;;
63880;SDS011;50046;46.672;11.152;2022-12-20T00:11:58;0.70;;;0.70;;
63880;SDS011;50046;46.672;11.152;2022-12-20T00:12:08;0.60;;;0.60;;
63880;SDS011;50046;46.672;11.152;2022-12-20T00:12:19;0.60;;;0.60;;
63880;SDS011;50046;46.672;11.152;2022-12-20T00:12:29;0.60;;;0.60;;
63880;SDS011;50046;46.672;11.152;2022-12-20T00:12:39;0.60;;;0.60;;
63880;SDS011;50046;46.672;11.152;2022-12-20T00:12:50;0.50;;;0.50;;
63880;SDS011;50046;46.672;11.152;2022-12-20T00:13:00;0.50;;;0.50;;
63880;SDS011;50046;46.672;11.152;2022-12-20T00:13:11;0.50;;;0.50;;
63880;SDS011;50046;46.672;11.152;2022-12-20T00:13:22;0.50;;;0.50;;
63880;SDS011;50046;46.672;11.152;2022-12-20T00:13:32;0.40;;;0.40;;
63880;SDS011;50046;46.672;11.152;2022-12-20T00:13:44;0.50;;;0.50;;
63880;SDS011;50046;46.672;11.152;2022-12-20T00:13:56;0.60;;;0.60;;
63880;SDS011;50046;46.672;11.152;2022-12-20T00:14:39;0.60;;;0.60;;
63880;SDS011;50046;46.672;11.152;2022-12-20T00:14:49;0.50;;;0.50;;
63880;SDS011;50046;46.672;11.152;2022-12-20T00:15:00;0.50;;;0.50;;
63880;SDS011;50046;46.672;11.152;2022-12-20T00:15:10;0.50;;;0.50;;
63880;SDS011;50046;46.672;11.152;2022-12-20T00:15:20;0.50;;;0.50;;
63880;SDS011;50046;46.672;11.152;2022-12-20T00:15:31;0.50;;;0.50;;
63880;SDS011;50046;46.672;11.152;2022-12-20T00:15:42;0.60;;;0.60;;
63880;SDS011;50046;46.672;11.152;2022-12-20T00:16:13;0.60;;;0.60;;
63880;SDS011;50046;46.672;11.152;2022-12-20T00:16:25;0.50;;;0.50;;
63880;SDS011;50046;46.672;11.152;2022-12-20T00:16:37;0.50;;;0.50;;
63880;SDS011;50046;46.672;11.152;2022-12-20T00:16:47;0.50;;;0.50;;
63880;SDS011;50046;46.672;11.152;2022-12-20T00:17:45;0.70;;;0.70;;
63880;SDS011;50046;46.672;11.152;2022-12-20T00:17:55;0.70;;;0.70;;
63880;SDS011;50046;46.672;11.152;2022-12-20T00:18:06;0.60;;;0.60;;
63880;SDS011;50046;46.672;11.152;2022-12-20T00:18:17;0.60;;;0.60;;
63880;SDS011;50046;46.672;11.152;2022-12-20T00:18:27;0.60;;;0.60;;
63880;SDS011;50046;46.672;11.152;2022-12-20T00:18:38;0.50;;;0.50;;
63880;SDS011;50046;46.672;11.152;2022-12-20T00:18:50;0.50;;;0.50;;
63880;SDS011;50046;46.672;11.152;2022-12-20T00:19:04;0.50;;;0.50;;
63880;SDS011;50046;46.672;11.152;2022-12-20T00:19:15;0.50;;;0.50;;
63880;SDS011;50046;46.672;11.152;2022-12-20T00:19:25;0.50;;;0.50;;
63880;SDS011;50046;46.672;11.152;2022-12-20T00:19:36;0.60;;;0.60;;
63880;SDS011;50046;46.672;11.152;2022-12-20T00:19:46;0.70;;;0.70;;
63880;SDS011;50046;46.672;11.152;2022-12-20T00:19:57;0.80;;;0.80;;
63880;SDS011;50046;46.672;11.152;2022-12-20T00:20:07;0.80;;;0.80;;
63880;SDS011;50046;46.672;11.152;2022-12-20T00:20:18;0.80;;;0.80;;
63880;SDS011;50046;46.672;11.152;2022-12-20T00:20:28;0.70;;;0.70;;
63880;SDS011;50046;46.672;11.152;2022-12-20T00:20:39;0.60;;;0.60;;
63880;SDS011;50046;46.672;11.152;2022-12-20T00:20:56;0.60;;;0.60;;
63880;SDS011;50046;46.672;11.152;2022-12-20T00:21:08;0.55;;;0.55;;
63880;SDS011;50046;46.672;11.152;2022-12-20T00:21:20;0.50;;;0.50;;
63880;SDS011;50046;46.672;11.152;2022-12-20T00:21:31;0.50;;;0.50;;
63880;SDS011;50046;46.672;11.152;2022-12-20T00:21:43;0.50;;;0.50;;
63880;SDS011;50046;46.672;11.152;2022-12-20T00:21:53;0.40;;;0.40;;
63880;SDS011;50046;46.672;11.152;2022-12-20T00:22:03;0.40;;;0.40;;
63880;SDS011;50046;46.672;11.152;2022-12-20T00:22:14;0.43;;;0.43;;
63880;SDS011;50046;46.672;11.152;2022-12-20T00:22:24;0.50;;;0.50;;
63880;SDS011;50046;46.672;11.152;2022-12-20T00:22:34;0.50;;;0.50;;
63880;SDS011;50046;46.672;11.152;2022-12-20T00:22:45;0.50;;;0.50;;
63880;SDS011;50046;46.672;11.152;2022-12-20T00:22:55;0.50;;;0.50;;
63880;SDS011;50046;46.672;11.152;2022-12-20T00:23:06;0.50;;;0.50;;
63880;SDS011;50046;46.672;11.152;2022-12-20T00:23:16;0.50;;;0.50;;
63880;SDS011;50046;46.672;11.152;2022-12-20T00:23:27;0.50;;;0.50;;
63880;SDS011;50046;46.672;11.152;2022-12-20T00:23:39;0.50;;;0.50;;
63880;SDS011;50046;46.672;11.152;2022-12-20T00:23:50;0.43;;;0.43;;
63880;SDS011;50046;46.672;11.152;2022-12-20T00:24:01;0.60;;;0.60;;
63880;SDS011;50046;46.672;11.152;2022-12-20T00:24:13;0.70;;;0.70;;
63880;SDS011;50046;46.672;11.152;2022-12-20T00:24:24;0.70;;;0.70;;
63880;SDS011;50046;46.672;11.152;2022-12-20T00:24:34;0.60;;;0.60;;
63880;SDS011;50046;46.672;11.152;2022-12-20T00:24:45;0.55;;;0.55;;
63880;SDS011;50046;46.672;11.152;2022-12-20T00:24:55;0.50;;;0.50;;
63880;SDS011;50046;46.672;11.152;2022-12-20T00:25:06;0.50;;;0.50;;
63880;SDS011;50046;46.672;11.152;2022-12-20T00:25:16;0.50;;;0.50;;
63880;SDS011;50046;46.672;11.152;2022-12-20T00:25:27;0.50;;;0.50;;
63880;SDS011;50046;46.672;11.152;2022-12-20T00:25:38;0.50;;;0.50;;
63880;SDS011;50046;46.672;11.152;2022-12-20T00:25:48;0.50;;;0.50;;
63880;SDS011;50046;46.672;11.152;2022-12-20T00:26:21;0.57;;;0.57;;
63880;SDS011;50046;46.672;11.152;2022-12-20T00:26:32;0.60;;;0.60;;
63880;SDS011;50046;46.672;11.152;2022-12-20T00:26:43;0.50;;;0.50;;
63880;SDS011;50046;46.672;11.152;2022-12-20T00:26:54;0.50;;;0.50;;
63880;SDS011;50046;46.672;11.152;2022-12-20T00:27:04;0.50;;;0.50;;
63880;SDS011;50046;46.672;11.152;2022-12-20T00:27:14;0.50;;;0.50;;
63880;SDS011;50046;46.672;11.152;2022-12-20T00:27:25;0.50;;;0.50;;
63880;SDS011;50046;46.672;11.152;2022-12-20T00:27:35;0.60;;;0.60;;
63880;SDS011;50046;46.672;11.152;2022-12-20T00:27:46;0.70;;;0.70;;
63880;SDS011;50046;46.672;11.152;2022-12-20T00:27:57;0.80;;;0.80;;
63880;SDS011;50046;46.672;11.152;2022-12-20T00:28:07;0.70;;;0.70;;
63880;SDS011;50046;46.672;11.152;2022-12-20T00:28:18;0.70;;;0.70;;
63880;SDS011;50046;46.672;11.152;2022-12-20T00:28:28;0.60;;;0.60;;
63880;SDS011;50046;46.672;11.152;2022-12-20T00:28:39;0.60;;;0.60;;
63880;SDS011;50046;46.672;11.152;2022-12-20T00:28:50;0.60;;;0.60;;
63880;SDS011;50046;46.672;11.152;2022-12-20T00:29:01;0.60;;;0.60;;
63880;SDS011;50046;46.672;11.152;2022-12-20T00:29:11;0.50;;;0.50;;
63880;SDS011;50046;46.672;11.152;2022-12-20T00:29:22;0.50;;;0.50;;
63880;SDS011;50046;46.672;11.152;2022-12-20T00:29:33;0.50;;;0.50;;
63880;SDS011;50046;46.672;11.152;2022-12-20T00:29:44;0.50;;;0.50;;
63880;SDS011;50046;46.672;11.152;2022-12-20T00:29:54;0.50;;;0.50;;
63880;SDS011;50046;46.672;11.152;2022-12-20T00:30:04;0.50;;;0.50;;
63880;SDS011;50046;46.672;11.152;2022-12-20T00:30:16;0.60;;;0.60;;
63880;SDS011;50046;46.672;11.152;2022-12-20T00:30:26;0.60;;;0.60;;
63880;SDS011;50046;46.672;11.152;2022-12-20T00:30:37;0.50;;;0.50;;
63880;SDS011;50046;46.672;11.152;2022-12-20T00:30:51;0.50;;;0.50;;
63880;SDS011;50046;46.672;11.152;2022-12-20T00:31:03;0.50;;;0.50;;
63880;SDS011;50046;46.672;11.152;2022-12-20T00:31:16;0.50;;;0.50;;
63880;SDS011;50046;46.672;11.152;2022-12-20T00:31:28;0.40;;;0.40;;
63880;SDS011;50046;46.672;11.152;2022-12-20T00:31:39;0.50;;;0.50;;
63880;SDS011;50046;46.672;11.152;2022-12-20T00:31:49;0.60;;;0.60;;
63880;SDS011;50046;46.672;11.152;2022-12-20T00:32:00;0.60;;;0.60;;
63880;SDS011;50046;46.672;11.152;2022-12-20T00:32:10;0.60;;;0.60;;
63880;SDS011;50046;46.672;11.152;2022-12-20T00:32:21;0.50;;;0.50;;
63880;SDS011;50046;46.672;11.152;2022-12-20T00:32:31;0.50;;;0.50;;
63880;SDS011;50046;46.672;11.152;2022-12-20T00:32:42;0.50;;;0.50;;
63880;SDS011;50046;46.672;11.152;2022-12-20T00:32:53;0.50;;;0.50;;
63880;SDS011;50046;46.672;11.152;2022-12-20T00:33:03;0.50;;;0.50;;
63880;SDS011;50046;46.672;11.152;2022-12-20T00:33:13;0.50;;;0.50;;
63880;SDS011;50046;46.672;11.152;2022-12-20T00:33:24;0.50;;;0.50;;
63880;SDS011;50046;46.672;11.152;2022-12-20T00:33:35;0.60;;;0.60;;
63880;SDS011;50046;46.672;11.152;2022-12-20T00:33:48;0.60;;;0.60;;
63880;SDS011;50046;46.672;11.152;2022-12-20T00:34:00;0.60;;;0.60;;
63880;SDS011;50046;46.672;11.152;2022-12-20T00:34:10;0.60;;;0.60;;
63880;SDS011;50046;46.672;11.152;2022-12-20T00:34:20;0.50;;;0.50;;
63880;SDS011;50046;46.672;11.152;2022-12-20T00:34:31;0.50;;;0.50;;
63880;SDS011;50046;46.672;11.152;2022-12-20T00:34:41;0.50;;;0.50;;
63880;SDS011;50046;46.672;11.152;2022-12-20T00:34:52;0.50;;;0.50;;
63880;SDS011;50046;46.672;11.152;2022-12-20T00:35:02;0.52;;;0.52;;
63880;SDS011;50046;46.672;11.152;2022-12-20T00:35:13;0.70;;;0.70;;
63880;SDS011;50046;46.672;11.152;2022-12-20T00:35:23;0.80;;;0.80;;
63880;SDS011;50046;46.672;11.152;2022-12-20T00:35:33;0.80;;;0.80;;
63880;SDS011;50046;46.672;11.152;2022-12-20T00:35:44;0.80;;;0.80;;
63880;SDS011;50046;46.672;11.152;2022-12-20T00:35:54;0.70;;;0.70;;
63880;SDS011;50046;46.672;11.152;2022-12-20T00:36:06;0.70;;;0.70;;
63880;SDS011;50046;46.672;11.152;2022-12-20T00:36:17;0.60;;;0.60;;
63880;SDS011;50046;46.672;11.152;2022-12-20T00:36:29;0.60;;;0.60;;
63880;SDS011;50046;46.672;11.152;2022-12-20T00:36:59;0.60;;;0.60;;
63880;SDS011;50046;46.672;11.152;2022-12-20T00:37:10;0.50;;;0.50;;
63880;SDS011;50046;46.672;11.152;2022-12-20T00:37:20;0.50;;;0.50;;
63880;SDS011;50046;46.672;11.152;2022-12-20T00:37:30;0.50;;;0.50;;
63880;SDS011;50046;46.672;11.152;2022-12-20T00:37:41;0.60;;;0.60;;
63880;SDS011;50046;46.672;11.152;2022-12-20T00:37:51;0.70;;;0.70;;
63880;SDS011;50046;46.672;11.152;2022-12-20T00:38:01;0.70;;;0.70;;
63880;SDS011;50046;46.672;11.152;2022-12-20T00:38:12;0.60;;;0.60;;
63880;SDS011;50046;46.672;11.152;2022-12-20T00:38:23;0.60;;;0.60;;
63880;SDS011;50046;46.672;11.152;2022-12-20T00:38:34;0.60;;;0.60;;
63880;SDS011;50046;46.672;11.152;2022-12-20T00:38:49;0.52;;;0.52;;
63880;SDS011;50046;46.672;11.152;2022-12-20T00:39:01;0.50;;;0.50;;
63880;SDS011;50046;46.672;11.152;2022-12-20T00:39:11;0.50;;;0.50;;
63880;SDS011;50046;46.672;11.152;2022-12-20T00:39:22;0.50;;;0.50;;
63880;SDS011;50046;46.672;11.152;2022-12-20T00:39:32;0.50;;;0.50;;
63880;SDS011;50046;46.672;11.152;2022-12-20T00:39:42;0.57;;;0.57;;
63880;SDS011;50046;46.672;11.152;2022-12-20T00:39:53;0.60;;;0.60;;
63880;SDS011;50046;46.672;11.152;2022-12-20T00:40:04;0.60;;;0.60;;
63880;SDS011;50046;46.672;11.152;2022-12-20T00:40:15;0.60;;;0.60;;
63880;SDS011;50046;46.672;11.152;2022-12-20T00:40:25;0.60;;;0.60;;
63880;SDS011;50046;46.672;11.152;2022-12-20T00:40:35;0.53;;;0.53;;
63880;SDS011;50046;46.672;11.152;2022-12-20T00:40:46;0.50;;;0.50;;
63880;SDS011;50046;46.672;11.152;2022-12-20T00:41:04;0.50;;;0.50;;
63880;SDS011;50046;46.672;11.152;2022-12-20T00:41:17;0.60;;;0.60;;
63880;SDS011;50046;46.672;11.152;2022-12-20T00:41:30;0.70;;;0.70;;
63880;SDS011;50046;46.672;11.152;2022-12-20T00:41:42;0.70;;;0.70;;
63880;SDS011;50046;46.672;11.152;2022-12-20T00:41:52;0.70;;;0.70;;
63880;SDS011;50046;46.672;11.152;2022-12-20T00:42:03;0.60;;;0.60;;
63880;SDS011;50046;46.672;11.152;2022-12-20T00:42:13;0.60;;;0.60;;
63880;SDS011;50046;46.672;11.152;2022-12-20T00:42:24;0.50;;;0.50;;
63880;SDS011;50046;46.672;11.152;2022-12-20T00:42:34;0.50;;;0.50;;
63880;SDS011;50046;46.672;11.152;2022-12-20T00:42:45;0.50;;;0.50;;
63880;SDS011;50046;46.672;11.152;2022-12-20T00:42:55;0.50;;;0.50;;
63880;SDS011;50046;46.672;11.152;2022-12-20T00:43:06;0.50;;;0.50;;
63880;SDS011;50046;46.672;11.152;2022-12-20T00:43:16;0.63;;;0.63;;
63880;SDS011;50046;46.672;11.152;2022-12-20T00:43:27;0.77;;;0.77;;
63880;SDS011;50046;46.672;11.152;2022-12-20T00:43:38;0.80;;;0.80;;
63880;SDS011;50046;46.672;11.152;2022-12-20T00:43:49;0.80;;;0.80;;
63880;SDS011;50046;46.672;11.152;2022-12-20T00:44:01;0.70;;;0.70;;
63880;SDS011;50046;46.672;11.152;2022-12-20T00:44:12;0.70;;;0.70;;
63880;SDS011;50046;46.672;11.152;2022-12-20T00:44:23;0.60;;;0.60;;
63880;SDS011;50046;46.672;11.152;2022-12-20T00:44:33;0.60;;;0.60;;
63880;SDS011;50046;46.672;11.152;2022-12-20T00:44:43;0.50;;;0.50;;
63880;SDS011;50046;46.672;11.152;2022-12-20T00:44:54;0.50;;;0.50;;
63880;SDS011;50046;46.672;11.152;2022-12-20T00:45:04;0.50;;;0.50;;
63880;SDS011;50046;46.672;11.152;2022-12-20T00:45:15;0.50;;;0.50;;
63880;SDS011;50046;46.672;11.152;2022-12-20T00:45:25;0.47;;;0.47;;
63880;SDS011;50046;46.672;11.152;2022-12-20T00:45:36;0.40;;;0.40;;
63880;SDS011;50046;46.672;11.152;2022-12-20T00:45:46;0.50;;;0.50;;
63880;SDS011;50046;46.672;11.152;2022-12-20T00:45:56;0.60;;;0.60;;
63880;SDS011;50046;46.672;11.152;2022-12-20T00:46:08;0.60;;;0.60;;
63880;SDS011;50046;46.672;11.152;2022-12-20T00:46:19;0.60;;;0.60;;
63880;SDS011;50046;46.672;11.152;2022-12-20T00:46:32;0.50;;;0.50;;
63880;SDS011;50046;46.672;11.152;2022-12-20T00:46:59;0.50;;;0.50;;
63880;SDS011;50046;46.672;11.152;2022-12-20T00:48:46;0.60;;;0.60;;
63880;SDS011;50046;46.672;11.152;2022-12-20T00:48:57;0.60;;;0.60;;
63880;SDS011;50046;46.672;11.152;2022-12-20T00:49:07;0.50;;;0.50;;
63880;SDS011;50046;46.672;11.152;2022-12-20T00:49:17;0.50;;;0.50;;
63880;SDS011;50046;46.672;11.152;2022-12-20T00:49:28;0.50;;;0.50;;
63880;SDS011;50046;46.672;11.152;2022-12-20T00:49:38;0.50;;;0.50;;
63880;SDS011;50046;46.672;11.152;2022-12-20T00:49:49;0.43;;;0.43;;
63880;SDS011;50046;46.672;11.152;2022-12-20T00:51:12;0.50;;;0.50;;
63880;SDS011;50046;46.672;11.152;2022-12-20T00:51:26;0.50;;;0.50;;
63880;SDS011;50046;46.672;11.152;2022-12-20T00:51:38;0.60;;;0.60;;
63880;SDS011;50046;46.672;11.152;2022-12-20T00:51:48;0.70;;;0.70;;
63880;SDS011;50046;46.672;11.152;2022-12-20T00:51:59;0.70;;;0.70;;
63880;SDS011;50046;46.672;11.152;2022-12-20T00:52:09;0.60;;;0.60;;
63880;SDS011;50046;46.672;11.152;2022-12-20T00:52:19;0.60;;;0.60;;
63880;SDS011;50046;46.672;11.152;2022-12-20T00:52:30;0.50;;;0.50;;
63880;SDS011;50046;46.672;11.152;2022-12-20T00:52:40;0.50;;;0.50;;
63880;SDS011;50046;46.672;11.152;2022-12-20T00:52:50;0.50;;;0.50;;
63880;SDS011;50046;46.672;11.152;2022-12-20T00:53:01;0.50;;;0.50;;
63880;SDS011;50046;46.672;11.152;2022-12-20T00:53:11;0.60;;;0.60;;
63880;SDS011;50046;46.672;11.152;2022-12-20T00:53:21;0.73;;;0.73;;
63880;SDS011;50046;46.672;11.152;2022-12-20T00:53:32;0.90;;;0.90;;
63880;SDS011;50046;46.672;11.152;2022-12-20T00:53:43;0.90;;;0.90;;
63880;SDS011;50046;46.672;11.152;2022-12-20T00:53:53;0.80;;;0.80;;
63880;SDS011;50046;46.672;11.152;2022-12-20T00:54:04;0.70;;;0.70;;
63880;SDS011;50046;46.672;11.152;2022-12-20T00:54:14;0.70;;;0.70;;
63880;SDS011;50046;46.672;11.152;2022-12-20T00:54:25;0.70;;;0.70;;
63880;SDS011;50046;46.672;11.152;2022-12-20T00:54:35;0.70;;;0.70;;
63880;SDS011;50046;46.672;11.152;2022-12-20T00:54:45;0.60;;;0.60;;
63880;SDS011;50046;46.672;11.152;2022-12-20T00:54:56;0.50;;;0.50;;
63880;SDS011;50046;46.672;11.152;2022-12-20T00:55:06;0.60;;;0.60;;
63880;SDS011;50046;46.672;11.152;2022-12-20T00:55:17;0.52;;;0.52;;
63880;SDS011;50046;46.672;11.152;2022-12-20T00:55:27;0.50;;;0.50;;
63880;SDS011;50046;46.672;11.152;2022-12-20T00:55:41;0.50;;;0.50;;
63880;SDS011;50046;46.672;11.152;2022-12-20T00:55:52;0.60;;;0.60;;
63880;SDS011;50046;46.672;11.152;2022-12-20T00:56:03;0.67;;;0.67;;
63880;SDS011;50046;46.672;11.152;2022-12-20T00:56:14;0.60;;;0.60;;
63880;SDS011;50046;46.672;11.152;2022-12-20T00:57:01;0.50;;;0.50;;
63880;SDS011;50046;46.672;11.152;2022-12-20T00:57:51;0.60;;;0.60;;
63880;SDS011;50046;46.672;11.152;2022-12-20T00:58:45;0.60;;;0.60;;
63880;SDS011;50046;46.672;11.152;2022-12-20T00:59:36;0.60;;;0.60;;
63880;SDS011;50046;46.672;11.152;2022-12-20T01:00:26;0.50;;;0.50;;
63880;SDS011;50046;46.672;11.152;2022-12-20T01:01:19;0.60;;;0.60;;
63880;SDS011;50046;46.672;11.152;2022-12-20T01:02:08;0.50;;;0.50;;
63880;SDS011;50046;46.672;11.152;2022-12-20T01:03:20;0.50;;;0.50;;
63880;SDS011;50046;46.672;11.152;2022-12-20T01:03:30;0.50;;;0.50;;
63880;SDS011;50046;46.672;11.152;2022-12-20T01:04:40;0.63;;;0.63;;
63880;SDS011;50046;46.672;11.152;2022-12-20T01:05:00;0.50;;;0.50;;
63880;SDS011;50046;46.672;11.152;2022-12-20T01:05:10;0.50;;;0.50;;
63880;SDS011;50046;46.672;11.152;2022-12-20T01:05:22;0.50;;;0.50;;
63880;SDS011;50046;46.672;11.152;2022-12-20T01:05:33;0.40;;;0.40;;
63880;SDS011;50046;46.672;11.152;2022-12-20T01:05:53;0.50;;;0.50;;
63880;SDS011;50046;46.672;11.152;2022-12-20T01:06:13;0.60;;;0.60;;
63880;SDS011;50046;46.672;11.152;2022-12-20T01:06:24;0.50;;;0.50;;
63880;SDS011;50046;46.672;11.152;2022-12-20T01:06:36;0.50;;;0.50;;
63880;SDS011;50046;46.672;11.152;2022-12-20T01:06:48;0.50;;;0.50;;
63880;SDS011;50046;46.672;11.152;2022-12-20T01:07:03;0.50;;;0.50;;
63880;SDS011;50046;46.672;11.152;2022-12-20T01:07:13;0.50;;;0.50;;
63880;SDS011;50046;46.672;11.152;2022-12-20T01:07:24;0.60;;;0.60;;
63880;SDS011;50046;46.672;11.152;2022-12-20T01:07:35;0.60;;;0.60;;
63880;SDS011;50046;46.672;11.152;2022-12-20T01:07:46;0.60;;;0.60;;
63880;SDS011;50046;46.672;11.152;2022-12-20T01:07:57;0.60;;;0.60;;
63880;SDS011;50046;46.672;11.152;2022-12-20T01:08:09;0.60;;;0.60;;
63880;SDS011;50046;46.672;11.152;2022-12-20T01:08:20;0.50;;;0.50;;
63880;SDS011;50046;46.672;11.152;2022-12-20T01:08:35;0.50;;;0.50;;
63880;SDS011;50046;46.672;11.152;2022-12-20T01:08:45;0.50;;;0.50;;
63880;SDS011;50046;46.672;11.152;2022-12-20T01:08:57;0.63;;;0.63;;
63880;SDS011;50046;46.672;11.152;2022-12-20T01:09:09;0.73;;;0.73;;
63880;SDS011;50046;46.672;11.152;2022-12-20T01:09:21;0.70;;;0.70;;
63880;SDS011;50046;46.672;11.152;2022-12-20T01:09:34;0.70;;;0.70;;
63880;SDS011;50046;46.672;11.152;2022-12-20T01:09:45;0.60;;;0.60;;
63880;SDS011;50046;46.672;11.152;2022-12-20T01:09:57;0.50;;;0.50;;
63880;SDS011;50046;46.672;11.152;2022-12-20T01:10:07;0.50;;;0.50;;
63880;SDS011;50046;46.672;11.152;2022-12-20T01:10:20;0.50;;;0.50;;
63880;SDS011;50046;46.672;11.152;2022-12-20T01:10:34;0.50;;;0.50;;
63880;SDS011;50046;46.672;11.152;2022-12-20T01:10:46;0.60;;;0.60;;
63880;SDS011;50046;46.672;11.152;2022-12-20T01:11:00;0.60;;;0.60;;
63880;SDS011;50046;46.672;11.152;2022-12-20T01:11:19;0.60;;;0.60;;
63880;SDS011;50046;46.672;11.152;2022-12-20T01:11:31;0.50;;;0.50;;
63880;SDS011;50046;46.672;11.152;2022-12-20T01:11:43;0.50;;;0.50;;
63880;SDS011;50046;46.672;11.152;2022-12-20T01:11:55;0.50;;;0.50;;
63880;SDS011;50046;46.672;11.152;2022-12-20T01:12:06;0.50;;;0.50;;
63880;SDS011;50046;46.672;11.152;2022-12-20T01:12:17;0.60;;;0.60;;
63880;SDS011;50046;46.672;11.152;2022-12-20T01:12:27;0.60;;;0.60;;
63880;SDS011;50046;46.672;11.152;2022-12-20T01:12:37;0.67;;;0.67;;
63880;SDS011;50046;46.672;11.152;2022-12-20T01:12:50;0.60;;;0.60;;
63880;SDS011;50046;46.672;11.152;2022-12-20T01:13:03;0.60;;;0.60;;
63880;SDS011;50046;46.672;11.152;2022-12-20T01:13:13;0.50;;;0.50;;
63880;SDS011;50046;46.672;11.152;2022-12-20T01:13:23;0.50;;;0.50;;
63880;SDS011;50046;46.672;11.152;2022-12-20T01:13:37;0.43;;;0.43;;
63880;SDS011;50046;46.672;11.152;2022-12-20T01:13:51;0.50;;;0.50;;
63880;SDS011;50046;46.672;11.152;2022-12-20T01:14:05;0.60;;;0.60;;
63880;SDS011;50046;46.672;11.152;2022-12-20T01:14:20;0.60;;;0.60;;
63880;SDS011;50046;46.672;11.152;2022-12-20T01:14:33;0.60;;;0.60;;
63880;SDS011;50046;46.672;11.152;2022-12-20T01:14:43;0.60;;;0.60;;
63880;SDS011;50046;46.672;11.152;2022-12-20T01:14:55;0.50;;;0.50;;
63880;SDS011;50046;46.672;11.152;2022-12-20T01:15:06;0.50;;;0.50;;
63880;SDS011;50046;46.672;11.152;2022-12-20T01:15:17;0.50;;;0.50;;
63880;SDS011;50046;46.672;11.152;2022-12-20T01:15:30;0.60;;;0.60;;
63880;SDS011;50046;46.672;11.152;2022-12-20T01:15:44;0.70;;;0.70;;
63880;SDS011;50046;46.672;11.152;2022-12-20T01:15:56;0.60;;;0.60;;
63880;SDS011;50046;46.672;11.152;2022-12-20T01:16:14;0.60;;;0.60;;
63880;SDS011;50046;46.672;11.152;2022-12-20T01:16:33;0.60;;;0.60;;
63880;SDS011;50046;46.672;11.152;2022-12-20T01:16:45;0.50;;;0.50;;
63880;SDS011;50046;46.672;11.152;2022-12-20T01:16:56;0.50;;;0.50;;
63880;SDS011;50046;46.672;11.152;2022-12-20T01:17:07;0.50;;;0.50;;
63880;SDS011;50046;46.672;11.152;2022-12-20T01:17:17;0.53;;;0.53;;
63880;SDS011;50046;46.672;11.152;2022-12-20T01:17:30;0.60;;;0.60;;
63880;SDS011;50046;46.672;11.152;2022-12-20T01:17:41;0.60;;;0.60;;
63880;SDS011;50046;46.672;11.152;2022-12-20T01:17:54;0.55;;;0.55;;
63880;SDS011;50046;46.672;11.152;2022-12-20T01:18:06;0.50;;;0.50;;
63880;SDS011;50046;46.672;11.152;2022-12-20T01:18:17;0.50;;;0.50;;
63880;SDS011;50046;46.672;11.152;2022-12-20T01:18:29;0.50;;;0.50;;
63880;SDS011;50046;46.672;11.152;2022-12-20T01:18:43;0.47;;;0.47;;
63880;SDS011;50046;46.672;11.152;2022-12-20T01:18:54;0.50;;;0.50;;